sensor_id;sensor_type;location;lat;lon;timestamp;pressure;altitude;pressure_sealevel;temperature;humidity
59168;BME280;44948;55.046;73.266;2023-03-01T00:02:30;99158.91;;;-0.66;85.00
59168;BME280;44948;55.046;73.266;2023-03-01T00:05:32;99158.13;;;-0.68;84.60
59168;BME280;44948;55.046;73.266;2023-03-01T00:08:35;99147.66;;;-0.63;84.59
59168;BME280;44948;55.046;73.266;2023-03-01T00:11:43;99139.41;;;-0.72;84.72
59168;BME280;44948;55.046;73.266;2023-03-01T00:14:51;99149.47;;;-0.65;84.82
59168;BME280;44948;55.046;73.266;2023-03-01T00:17:53;99142.75;;;-0.70;84.72
59168;BME280;44948;55.046;73.266;2023-03-01T00:20:56;99141.00;;;-0.69;84.56
59168;BME280;44948;55.046;73.266;2023-03-01T00:23:58;99140.09;;;-0.68;84.97
59168;BME280;44948;55.046;73.266;2023-03-01T00:27:01;99138.50;;;-0.71;84.68
59168;BME280;44948;55.046;73.266;2023-03-01T00:30:14;99131.75;;;-0.73;84.82
59168;BME280;44948;55.046;73.266;2023-03-01T00:33:26;99136.75;;;-0.70;84.82
59168;BME280;44948;55.046;73.266;2023-03-01T00:36:37;99134.31;;;-0.73;84.65
59168;BME280;44948;55.046;73.266;2023-03-01T00:39:42;99134.25;;;-0.72;84.89
59168;BME280;44948;55.046;73.266;2023-03-01T00:42:45;99131.75;;;-0.73;84.75
59168;BME280;44948;55.046;73.266;2023-03-01T00:45:47;99127.44;;;-0.73;84.62
59168;BME280;44948;55.046;73.266;2023-03-01T00:48:50;99139.25;;;-0.68;84.74
59168;BME280;44948;55.046;73.266;2023-03-01T00:52:03;99111.16;;;-0.73;84.58
59168;BME280;44948;55.046;73.266;2023-03-01T00:55:15;99129.09;;;-0.72;84.95
59168;BME280;44948;55.046;73.266;2023-03-01T00:58:18;99117.97;;;-0.72;84.90
59168;BME280;44948;55.046;73.266;2023-03-01T01:01:22;99114.28;;;-0.66;84.92
59168;BME280;44948;55.046;73.266;2023-03-01T01:04:25;99126.38;;;-0.68;84.88
59168;BME280;44948;55.046;73.266;2023-03-01T01:07:28;99126.22;;;-0.64;84.96
59168;BME280;44948;55.046;73.266;2023-03-01T01:10:40;99120.91;;;-0.61;84.72
59168;BME280;44948;55.046;73.266;2023-03-01T01:13:50;99118.13;;;-0.56;84.74
59168;BME280;44948;55.046;73.266;2023-03-01T01:16:52;99072.81;;;-0.79;84.65
59168;BME280;44948;55.046;73.266;2023-03-01T01:19:55;99114.59;;;-0.54;84.82
59168;BME280;44948;55.046;73.266;2023-03-01T01:23:05;99106.69;;;-0.49;84.42
59168;BME280;44948;55.046;73.266;2023-03-01T01:26:12;99110.09;;;-0.49;84.68
59168;BME280;44948;55.046;73.266;2023-03-01T01:29:15;99116.47;;;-0.57;84.62
59168;BME280;44948;55.046;73.266;2023-03-01T01:32:18;99098.50;;;-0.59;84.49
59168;BME280;44948;55.046;73.266;2023-03-01T01:35:20;99103.66;;;-0.59;84.48
59168;BME280;44948;55.046;73.266;2023-03-01T01:38:22;99092.81;;;-0.65;84.46
59168;BME280;44948;55.046;73.266;2023-03-01T01:41:28;99100.88;;;-0.54;84.47
59168;BME280;44948;55.046;73.266;2023-03-01T01:44:36;99100.19;;;-0.58;84.29
59168;BME280;44948;55.046;73.266;2023-03-01T01:47:38;99100.81;;;-0.53;84.60
59168;BME280;44948;55.046;73.266;2023-03-01T01:50:43;99094.75;;;-0.52;84.42
59168;BME280;44948;55.046;73.266;2023-03-01T01:53:57;99082.00;;;-0.55;83.98
59168;BME280;44948;55.046;73.266;2023-03-01T01:57:05;99084.34;;;-0.49;84.22
59168;BME280;44948;55.046;73.266;2023-03-01T02:00:21;99079.28;;;-0.52;84.06
59168;BME280;44948;55.046;73.266;2023-03-01T02:03:27;99060.34;;;-0.51;84.14
59168;BME280;44948;55.046;73.266;2023-03-01T02:06:49;99080.84;;;-0.48;83.84
59168;BME280;44948;55.046;73.266;2023-03-01T02:10:06;99067.91;;;-0.46;84.34
59168;BME280;44948;55.046;73.266;2023-03-01T02:13:09;99060.78;;;-0.41;83.85
59168;BME280;44948;55.046;73.266;2023-03-01T02:16:23;99070.13;;;-0.38;83.66
59168;BME280;44948;55.046;73.266;2023-03-01T02:22:54;99062.16;;;-0.34;83.48
59168;BME280;44948;55.046;73.266;2023-03-01T02:29:12;99062.75;;;-0.27;83.35
59168;BME280;44948;55.046;73.266;2023-03-01T02:32:24;99068.59;;;-0.24;83.39
59168;BME280;44948;55.046;73.266;2023-03-01T02:35:35;99069.97;;;-0.17;83.10
59168;BME280;44948;55.046;73.266;2023-03-01T02:38:41;99069.84;;;-0.14;82.96
59168;BME280;44948;55.046;73.266;2023-03-01T02:41:52;99067.13;;;-0.11;82.92
59168;BME280;44948;55.046;73.266;2023-03-01T02:45:05;99062.81;;;-0.10;82.77
59168;BME280;44948;55.046;73.266;2023-03-01T02:48:08;99067.97;;;-0.10;82.65
59168;BME280;44948;55.046;73.266;2023-03-01T02:54:56;99051.59;;;-0.09;82.29
59168;BME280;44948;55.046;73.266;2023-03-01T02:58:02;99048.28;;;0.06;82.27
59168;BME280;44948;55.046;73.266;2023-03-01T03:01:14;99045.88;;;0.03;82.23
59168;BME280;44948;55.046;73.266;2023-03-01T03:04:22;99046.56;;;0.07;82.02
59168;BME280;44948;55.046;73.266;2023-03-01T03:07:25;99049.72;;;0.12;81.81
59168;BME280;44948;55.046;73.266;2023-03-01T03:10:31;99041.66;;;0.19;81.37
59168;BME280;44948;55.046;73.266;2023-03-01T03:13:34;99039.69;;;0.25;81.67
59168;BME280;44948;55.046;73.266;2023-03-01T03:16:36;99036.50;;;0.37;81.32
59168;BME280;44948;55.046;73.266;2023-03-01T03:19:49;99035.28;;;0.44;81.36
59168;BME280;44948;55.046;73.266;2023-03-01T03:22:55;99031.47;;;0.51;81.19
59168;BME280;44948;55.046;73.266;2023-03-01T03:26:08;99016.47;;;0.42;81.23
59168;BME280;44948;55.046;73.266;2023-03-01T03:29:10;99031.19;;;0.57;81.29
59168;BME280;44948;55.046;73.266;2023-03-01T03:32:18;99029.97;;;0.64;80.87
59168;BME280;44948;55.046;73.266;2023-03-01T03:35:25;99030.22;;;0.60;80.86
59168;BME280;44948;55.046;73.266;2023-03-01T03:38:39;99023.91;;;0.65;81.48
59168;BME280;44948;55.046;73.266;2023-03-01T03:41:41;99014.78;;;0.75;81.38
59168;BME280;44948;55.046;73.266;2023-03-01T03:44:44;98997.63;;;0.74;81.50
59168;BME280;44948;55.046;73.266;2023-03-01T03:47:46;99012.81;;;0.80;81.52
59168;BME280;44948;55.046;73.266;2023-03-01T03:50:54;99014.72;;;0.77;81.76
59168;BME280;44948;55.046;73.266;2023-03-01T03:53:56;99016.13;;;0.83;81.90
59168;BME280;44948;55.046;73.266;2023-03-01T03:56:59;99011.88;;;0.81;81.65
59168;BME280;44948;55.046;73.266;2023-03-01T04:00:02;98997.72;;;0.73;81.96
59168;BME280;44948;55.046;73.266;2023-03-01T04:03:15;99007.03;;;0.75;82.59
59168;BME280;44948;55.046;73.266;2023-03-01T04:06:21;99007.38;;;0.69;82.99
59168;BME280;44948;55.046;73.266;2023-03-01T04:09:24;99018.97;;;0.61;83.23
59168;BME280;44948;55.046;73.266;2023-03-01T04:12:29;99003.41;;;0.62;83.63
59168;BME280;44948;55.046;73.266;2023-03-01T04:15:32;98987.94;;;0.62;83.64
59168;BME280;44948;55.046;73.266;2023-03-01T04:18:34;98987.63;;;0.68;83.85
59168;BME280;44948;55.046;73.266;2023-03-01T04:21:37;98979.19;;;0.65;83.80
59168;BME280;44948;55.046;73.266;2023-03-01T04:24:44;98965.94;;;0.55;84.08
59168;BME280;44948;55.046;73.266;2023-03-01T04:27:47;98969.13;;;0.60;84.33
59168;BME280;44948;55.046;73.266;2023-03-01T04:30:49;98969.13;;;0.60;84.79
59168;BME280;44948;55.046;73.266;2023-03-01T04:33:53;98954.97;;;0.67;84.74
59168;BME280;44948;55.046;73.266;2023-03-01T04:36:56;98957.56;;;0.67;84.59
59168;BME280;44948;55.046;73.266;2023-03-01T04:39:59;98959.84;;;0.73;84.45
59168;BME280;44948;55.046;73.266;2023-03-01T04:43:10;98963.47;;;0.87;84.57
59168;BME280;44948;55.046;73.266;2023-03-01T04:46:17;98952.88;;;0.91;84.33
59168;BME280;44948;55.046;73.266;2023-03-01T04:49:20;98944.63;;;0.85;84.54
59168;BME280;44948;55.046;73.266;2023-03-01T04:52:27;98940.31;;;1.01;84.47
59168;BME280;44948;55.046;73.266;2023-03-01T04:55:29;98939.00;;;1.09;84.13
59168;BME280;44948;55.046;73.266;2023-03-01T04:58:35;98935.25;;;1.15;83.81
59168;BME280;44948;55.046;73.266;2023-03-01T05:01:37;98936.78;;;1.19;83.94
59168;BME280;44948;55.046;73.266;2023-03-01T05:04:39;98943.44;;;1.23;83.97
59168;BME280;44948;55.046;73.266;2023-03-01T05:07:56;98928.25;;;1.17;83.75
59168;BME280;44948;55.046;73.266;2023-03-01T05:11:01;98919.59;;;1.18;83.69
59168;BME280;44948;55.046;73.266;2023-03-01T05:14:14;98931.38;;;1.24;83.75
59168;BME280;44948;55.046;73.266;2023-03-01T05:17:16;98889.78;;;0.97;83.43
59168;BME280;44948;55.046;73.266;2023-03-01T05:20:21;98925.53;;;1.20;83.77
59168;BME280;44948;55.046;73.266;2023-03-01T05:23:37;98898.97;;;1.02;84.00
59168;BME280;44948;55.046;73.266;2023-03-01T05:26:39;98919.59;;;1.02;84.23
59168;BME280;44948;55.046;73.266;2023-03-01T05:29:42;98928.75;;;1.08;84.13
59168;BME280;44948;55.046;73.266;2023-03-01T05:32:47;98915.94;;;1.22;84.15
59168;BME280;44948;55.046;73.266;2023-03-01T05:35:59;98915.22;;;1.36;83.59
59168;BME280;44948;55.046;73.266;2023-03-01T05:39:02;98909.34;;;1.32;83.33
59168;BME280;44948;55.046;73.266;2023-03-01T05:42:05;98919.59;;;1.34;83.38
59168;BME280;44948;55.046;73.266;2023-03-01T05:45:21;98912.53;;;1.37;83.34
59168;BME280;44948;55.046;73.266;2023-03-01T05:48:23;98911.94;;;1.48;82.90
59168;BME280;44948;55.046;73.266;2023-03-01T05:51:31;98918.25;;;1.58;83.09
59168;BME280;44948;55.046;73.266;2023-03-01T05:54:35;98900.25;;;1.57;82.86
59168;BME280;44948;55.046;73.266;2023-03-01T05:57:37;98903.41;;;1.62;82.51
59168;BME280;44948;55.046;73.266;2023-03-01T06:00:47;98916.66;;;1.71;82.31
59168;BME280;44948;55.046;73.266;2023-03-01T06:04:00;98903.66;;;1.73;82.11
59168;BME280;44948;55.046;73.266;2023-03-01T06:07:02;98915.59;;;1.60;81.99
59168;BME280;44948;55.046;73.266;2023-03-01T06:10:11;98907.28;;;1.55;82.27
59168;BME280;44948;55.046;73.266;2023-03-01T06:13:14;98906.19;;;1.59;82.35
59168;BME280;44948;55.046;73.266;2023-03-01T06:16:16;98891.91;;;1.52;82.57
59168;BME280;44948;55.046;73.266;2023-03-01T06:19:28;98902.69;;;1.44;82.62
59168;BME280;44948;55.046;73.266;2023-03-01T06:22:30;98889.13;;;1.40;83.00
59168;BME280;44948;55.046;73.266;2023-03-01T06:25:33;98893.19;;;1.45;82.76
59168;BME280;44948;55.046;73.266;2023-03-01T06:28:45;98885.78;;;1.38;82.82
59168;BME280;44948;55.046;73.266;2023-03-01T06:31:48;98901.28;;;1.54;82.52
59168;BME280;44948;55.046;73.266;2023-03-01T06:34:51;98890.09;;;1.54;82.32
59168;BME280;44948;55.046;73.266;2023-03-01T06:37:53;98892.84;;;1.51;82.59
59168;BME280;44948;55.046;73.266;2023-03-01T06:40:56;98899.09;;;1.47;82.42
59168;BME280;44948;55.046;73.266;2023-03-01T06:43:58;98908.50;;;1.48;82.44
59168;BME280;44948;55.046;73.266;2023-03-01T06:47:01;98905.00;;;1.49;82.45
59168;BME280;44948;55.046;73.266;2023-03-01T06:50:17;98889.28;;;1.37;82.55
59168;BME280;44948;55.046;73.266;2023-03-01T06:53:30;98896.34;;;1.50;82.89
59168;BME280;44948;55.046;73.266;2023-03-01T06:56:38;98884.34;;;1.49;82.84
59168;BME280;44948;55.046;73.266;2023-03-01T06:59:47;98880.59;;;1.54;82.52
59168;BME280;44948;55.046;73.266;2023-03-01T07:02:54;98878.25;;;1.50;82.31
59168;BME280;44948;55.046;73.266;2023-03-01T07:05:57;98869.75;;;1.48;82.49
59168;BME280;44948;55.046;73.266;2023-03-01T07:09:05;98875.28;;;1.41;82.41
59168;BME280;44948;55.046;73.266;2023-03-01T07:12:08;98879.44;;;1.44;82.79
59168;BME280;44948;55.046;73.266;2023-03-01T07:15:10;98858.28;;;1.37;82.66
59168;BME280;44948;55.046;73.266;2023-03-01T07:18:12;98856.94;;;1.30;82.60
59168;BME280;44948;55.046;73.266;2023-03-01T07:21:15;98849.63;;;1.23;82.84
59168;BME280;44948;55.046;73.266;2023-03-01T07:24:23;98851.03;;;1.28;82.97
59168;BME280;44948;55.046;73.266;2023-03-01T07:27:30;98843.72;;;1.36;82.92
59168;BME280;44948;55.046;73.266;2023-03-01T07:30:32;98835.78;;;1.39;82.49
59168;BME280;44948;55.046;73.266;2023-03-01T07:33:35;98831.91;;;1.47;82.39
59168;BME280;44948;55.046;73.266;2023-03-01T07:36:42;98814.56;;;1.49;82.34
59168;BME280;44948;55.046;73.266;2023-03-01T07:39:48;98822.00;;;1.55;82.13
59168;BME280;44948;55.046;73.266;2023-03-01T07:42:57;98814.16;;;1.56;81.96
59168;BME280;44948;55.046;73.266;2023-03-01T07:46:01;98790.13;;;1.40;81.52
59168;BME280;44948;55.046;73.266;2023-03-01T07:49:08;98794.28;;;1.42;81.57
59168;BME280;44948;55.046;73.266;2023-03-01T07:52:11;98813.16;;;1.59;81.22
59168;BME280;44948;55.046;73.266;2023-03-01T07:55:16;98821.63;;;1.61;81.25
59168;BME280;44948;55.046;73.266;2023-03-01T07:58:19;98819.25;;;1.58;81.32
59168;BME280;44948;55.046;73.266;2023-03-01T08:01:22;98819.88;;;1.61;81.44
59168;BME280;44948;55.046;73.266;2023-03-01T08:04:36;98807.25;;;1.57;81.25
59168;BME280;44948;55.046;73.266;2023-03-01T08:07:39;98802.25;;;1.54;81.33
59168;BME280;44948;55.046;73.266;2023-03-01T08:10:41;98804.28;;;1.63;81.66
59168;BME280;44948;55.046;73.266;2023-03-01T08:13:44;98791.03;;;1.69;81.13
59168;BME280;44948;55.046;73.266;2023-03-01T08:16:51;98793.88;;;1.64;81.65
59168;BME280;44948;55.046;73.266;2023-03-01T08:19:53;98774.56;;;1.56;81.50
59168;BME280;44948;55.046;73.266;2023-03-01T08:23:02;98784.34;;;1.65;81.95
59168;BME280;44948;55.046;73.266;2023-03-01T08:26:13;98783.34;;;1.67;82.00
59168;BME280;44948;55.046;73.266;2023-03-01T08:29:16;98776.97;;;1.59;82.08
59168;BME280;44948;55.046;73.266;2023-03-01T08:32:22;98773.81;;;1.54;82.42
59168;BME280;44948;55.046;73.266;2023-03-01T08:35:25;98782.41;;;1.54;82.22
59168;BME280;44948;55.046;73.266;2023-03-01T08:38:27;98786.75;;;1.54;82.54
59168;BME280;44948;55.046;73.266;2023-03-01T08:41:30;98778.41;;;1.49;82.41
59168;BME280;44948;55.046;73.266;2023-03-01T08:44:43;98792.06;;;1.51;82.45
59168;BME280;44948;55.046;73.266;2023-03-01T08:47:45;98778.78;;;1.42;82.65
59168;BME280;44948;55.046;73.266;2023-03-01T08:50:53;98768.44;;;1.42;83.13
59168;BME280;44948;55.046;73.266;2023-03-01T08:53:55;98769.25;;;1.43;83.20
59168;BME280;44948;55.046;73.266;2023-03-01T08:57:08;98769.34;;;1.41;83.13
59168;BME280;44948;55.046;73.266;2023-03-01T09:00:21;98753.53;;;1.32;83.71
59168;BME280;44948;55.046;73.266;2023-03-01T09:03:35;98739.22;;;1.26;83.62
59168;BME280;44948;55.046;73.266;2023-03-01T09:06:37;98747.31;;;1.50;83.30
59168;BME280;44948;55.046;73.266;2023-03-01T09:09:40;98700.81;;;1.36;83.56
59168;BME280;44948;55.046;73.266;2023-03-01T09:12:42;98734.34;;;1.66;83.18
59168;BME280;44948;55.046;73.266;2023-03-01T09:15:47;98733.81;;;1.75;83.05
59168;BME280;44948;55.046;73.266;2023-03-01T09:18:51;98731.41;;;1.86;82.97
59168;BME280;44948;55.046;73.266;2023-03-01T09:21:54;98726.59;;;1.80;82.80
59168;BME280;44948;55.046;73.266;2023-03-01T09:24:57;98725.50;;;1.70;83.03
59168;BME280;44948;55.046;73.266;2023-03-01T09:28:11;98707.38;;;1.56;83.04
59168;BME280;44948;55.046;73.266;2023-03-01T09:31:14;98715.31;;;1.67;83.27
59168;BME280;44948;55.046;73.266;2023-03-01T09:34:27;98710.06;;;1.68;83.07
59168;BME280;44948;55.046;73.266;2023-03-01T09:37:30;98713.56;;;1.82;83.08
59168;BME280;44948;55.046;73.266;2023-03-01T09:40:42;98708.59;;;1.79;82.67
59168;BME280;44948;55.046;73.266;2023-03-01T09:43:50;98690.31;;;1.67;83.04
59168;BME280;44948;55.046;73.266;2023-03-01T09:46:59;98690.69;;;1.61;83.16
59168;BME280;44948;55.046;73.266;2023-03-01T09:50:28;98682.47;;;1.55;83.25
59168;BME280;44948;55.046;73.266;2023-03-01T09:53:38;98676.81;;;1.48;83.50
59168;BME280;44948;55.046;73.266;2023-03-01T09:56:47;98686.22;;;1.49;83.12
59168;BME280;44948;55.046;73.266;2023-03-01T10:03:36;98686.50;;;1.45;83.07
59168;BME280;44948;55.046;73.266;2023-03-01T10:06:46;98678.84;;;1.43;83.39
59168;BME280;44948;55.046;73.266;2023-03-01T10:09:56;98675.63;;;1.39;83.61
59168;BME280;44948;55.046;73.266;2023-03-01T10:13:17;98678.53;;;1.19;84.15
59168;BME280;44948;55.046;73.266;2023-03-01T10:19:48;98665.63;;;1.19;84.41
59168;BME280;44948;55.046;73.266;2023-03-01T10:22:51;98660.47;;;1.19;84.34
59168;BME280;44948;55.046;73.266;2023-03-01T10:29:07;98665.69;;;1.18;84.71
59168;BME280;44948;55.046;73.266;2023-03-01T10:32:17;98647.88;;;1.13;84.46
59168;BME280;44948;55.046;73.266;2023-03-01T10:38:30;98649.91;;;1.08;84.55
59168;BME280;44948;55.046;73.266;2023-03-01T10:41:46;98650.06;;;0.91;84.80
59168;BME280;44948;55.046;73.266;2023-03-01T10:44:56;98658.25;;;0.67;85.45
59168;BME280;44948;55.046;73.266;2023-03-01T10:48:23;98645.63;;;0.93;85.63
59168;BME280;44948;55.046;73.266;2023-03-01T10:51:32;98637.97;;;0.91;85.56
59168;BME280;44948;55.046;73.266;2023-03-01T10:54:34;98639.09;;;1.01;85.27
59168;BME280;44948;55.046;73.266;2023-03-01T10:57:39;98633.28;;;0.98;85.36
59168;BME280;44948;55.046;73.266;2023-03-01T11:00:58;98625.84;;;0.77;85.52
59168;BME280;44948;55.046;73.266;2023-03-01T11:07:07;98637.66;;;0.81;85.57
59168;BME280;44948;55.046;73.266;2023-03-01T11:10:17;98626.78;;;0.76;85.44
59168;BME280;44948;55.046;73.266;2023-03-01T11:13:20;98633.59;;;0.77;85.93
59168;BME280;44948;55.046;73.266;2023-03-01T11:16:34;98614.75;;;0.61;86.26
59168;BME280;44948;55.046;73.266;2023-03-01T11:23:22;98625.88;;;0.62;86.61
59168;BME280;44948;55.046;73.266;2023-03-01T11:26:31;98613.25;;;0.57;86.76
59168;BME280;44948;55.046;73.266;2023-03-01T11:36:19;98604.97;;;0.66;86.77
59168;BME280;44948;55.046;73.266;2023-03-01T11:39:46;98586.97;;;0.50;86.31
59168;BME280;44948;55.046;73.266;2023-03-01T12:07:16;98557.38;;;0.42;86.84
59168;BME280;44948;55.046;73.266;2023-03-01T12:10:29;98559.00;;;0.59;87.00
59168;BME280;44948;55.046;73.266;2023-03-01T12:14:00;98554.72;;;0.28;87.36
59168;BME280;44948;55.046;73.266;2023-03-01T12:17:15;98550.38;;;0.44;87.18
59168;BME280;44948;55.046;73.266;2023-03-01T12:20:36;98548.34;;;0.49;87.77
59168;BME280;44948;55.046;73.266;2023-03-01T12:23:52;98548.53;;;0.46;87.71
59168;BME280;44948;55.046;73.266;2023-03-01T12:30:48;98551.75;;;0.35;87.42
59168;BME280;44948;55.046;73.266;2023-03-01T12:37:44;98542.06;;;0.39;87.68
59168;BME280;44948;55.046;73.266;2023-03-01T12:51:26;98505.38;;;0.34;87.77
59168;BME280;44948;55.046;73.266;2023-03-01T12:54:40;98517.94;;;0.40;88.15
59168;BME280;44948;55.046;73.266;2023-03-01T12:58:24;98522.09;;;0.42;88.00
59168;BME280;44948;55.046;73.266;2023-03-01T13:01:55;98529.91;;;0.41;87.93
59168;BME280;44948;55.046;73.266;2023-03-01T13:08:41;98533.16;;;0.44;87.92
59168;BME280;44948;55.046;73.266;2023-03-01T13:11:49;98507.63;;;0.40;88.42
59168;BME280;44948;55.046;73.266;2023-03-01T13:14:57;98525.13;;;0.49;88.38
59168;BME280;44948;55.046;73.266;2023-03-01T13:21:30;98512.44;;;0.46;88.34
59168;BME280;44948;55.046;73.266;2023-03-01T13:24:42;98508.75;;;0.50;88.44
59168;BME280;44948;55.046;73.266;2023-03-01T13:27:46;98507.81;;;0.51;88.00
59168;BME280;44948;55.046;73.266;2023-03-01T13:30:49;98503.94;;;0.44;88.39
59168;BME280;44948;55.046;73.266;2023-03-01T13:34:04;98502.28;;;0.43;88.08
59168;BME280;44948;55.046;73.266;2023-03-01T13:37:37;98513.91;;;0.50;88.41
59168;BME280;44948;55.046;73.266;2023-03-01T13:47:28;98510.41;;;0.51;88.36
59168;BME280;44948;55.046;73.266;2023-03-01T13:50:38;98508.59;;;0.53;88.15
59168;BME280;44948;55.046;73.266;2023-03-01T13:53:48;98478.16;;;0.44;88.22
59168;BME280;44948;55.046;73.266;2023-03-01T13:56:50;98498.81;;;0.58;88.21
59168;BME280;44948;55.046;73.266;2023-03-01T14:00:03;98506.56;;;0.58;88.40
59168;BME280;44948;55.046;73.266;2023-03-01T14:03:19;98496.69;;;0.50;88.38
59168;BME280;44948;55.046;73.266;2023-03-01T14:06:30;98498.09;;;0.56;88.09
59168;BME280;44948;55.046;73.266;2023-03-01T14:09:48;98479.63;;;0.48;88.10
59168;BME280;44948;55.046;73.266;2023-03-01T14:13:43;98489.66;;;0.38;88.17
59168;BME280;44948;55.046;73.266;2023-03-01T14:23:24;98471.16;;;0.46;88.76
59168;BME280;44948;55.046;73.266;2023-03-01T14:26:35;98455.88;;;0.43;88.82
59168;BME280;44948;55.046;73.266;2023-03-01T14:29:40;98447.22;;;0.44;88.61
59168;BME280;44948;55.046;73.266;2023-03-01T14:32:42;98437.44;;;0.49;88.71
59168;BME280;44948;55.046;73.266;2023-03-01T14:35:57;98433.03;;;0.51;88.37
59168;BME280;44948;55.046;73.266;2023-03-01T14:39:17;98423.81;;;0.47;88.34
59168;BME280;44948;55.046;73.266;2023-03-01T14:42:30;98427.84;;;0.51;88.39
59168;BME280;44948;55.046;73.266;2023-03-01T14:45:39;98419.28;;;0.50;88.50
59168;BME280;44948;55.046;73.266;2023-03-01T14:48:56;98412.22;;;0.40;88.75
59168;BME280;44948;55.046;73.266;2023-03-01T14:52:03;98411.09;;;0.44;88.56
59168;BME280;44948;55.046;73.266;2023-03-01T14:58:44;98416.56;;;0.54;88.67
59168;BME280;44948;55.046;73.266;2023-03-01T15:01:51;98416.19;;;0.60;88.75
59168;BME280;44948;55.046;73.266;2023-03-01T15:04:57;98407.53;;;0.61;88.47
59168;BME280;44948;55.046;73.266;2023-03-01T15:08:03;98411.47;;;0.66;87.82
59168;BME280;44948;55.046;73.266;2023-03-01T15:11:23;98409.28;;;0.60;87.70
59168;BME280;44948;55.046;73.266;2023-03-01T15:14:43;98411.03;;;0.60;87.68
59168;BME280;44948;55.046;73.266;2023-03-01T15:18:05;98409.72;;;0.67;88.15
59168;BME280;44948;55.046;73.266;2023-03-01T15:21:15;98406.50;;;0.63;87.64
59168;BME280;44948;55.046;73.266;2023-03-01T15:24:23;98399.88;;;0.73;87.83
59168;BME280;44948;55.046;73.266;2023-03-01T15:27:31;98398.13;;;0.74;87.80
59168;BME280;44948;55.046;73.266;2023-03-01T15:30:35;98402.06;;;0.79;87.79
59168;BME280;44948;55.046;73.266;2023-03-01T15:33:39;98373.34;;;0.71;87.44
59168;BME280;44948;55.046;73.266;2023-03-01T15:36:51;98393.50;;;0.79;87.60
59168;BME280;44948;55.046;73.266;2023-03-01T15:40:36;98383.09;;;0.66;86.97
59168;BME280;44948;55.046;73.266;2023-03-01T15:43:55;98365.50;;;0.73;87.22
59168;BME280;44948;55.046;73.266;2023-03-01T15:46:59;98379.78;;;0.78;87.01
59168;BME280;44948;55.046;73.266;2023-03-01T15:50:02;98385.75;;;0.79;87.12
59168;BME280;44948;55.046;73.266;2023-03-01T15:53:08;98391.56;;;0.83;86.99
59168;BME280;44948;55.046;73.266;2023-03-01T15:56:23;98381.63;;;0.76;87.03
59168;BME280;44948;55.046;73.266;2023-03-01T15:59:25;98380.69;;;0.77;86.99
59168;BME280;44948;55.046;73.266;2023-03-01T16:02:28;98352.91;;;0.68;86.63
59168;BME280;44948;55.046;73.266;2023-03-01T16:05:33;98385.31;;;0.87;86.75
59168;BME280;44948;55.046;73.266;2023-03-01T16:08:41;98384.75;;;0.81;86.69
59168;BME280;44948;55.046;73.266;2023-03-01T16:11:44;98393.41;;;0.80;86.80
59168;BME280;44948;55.046;73.266;2023-03-01T16:14:46;98373.97;;;0.75;86.77
59168;BME280;44948;55.046;73.266;2023-03-01T16:17:50;98390.84;;;0.80;86.60
59168;BME280;44948;55.046;73.266;2023-03-01T16:20:57;98377.28;;;0.77;86.75
59168;BME280;44948;55.046;73.266;2023-03-01T16:23:59;98369.06;;;0.85;86.51
59168;BME280;44948;55.046;73.266;2023-03-01T16:27:09;98365.94;;;0.79;86.64
59168;BME280;44948;55.046;73.266;2023-03-01T16:30:12;98365.31;;;0.76;86.52
59168;BME280;44948;55.046;73.266;2023-03-01T16:33:15;98351.19;;;0.81;86.18
59168;BME280;44948;55.046;73.266;2023-03-01T16:36:24;98353.41;;;0.88;86.23
59168;BME280;44948;55.046;73.266;2023-03-01T16:39:27;98334.53;;;0.73;86.18
59168;BME280;44948;55.046;73.266;2023-03-01T16:42:36;98364.09;;;0.81;86.04
59168;BME280;44948;55.046;73.266;2023-03-01T16:45:42;98363.06;;;0.84;86.17
59168;BME280;44948;55.046;73.266;2023-03-01T16:48:47;98356.94;;;0.87;86.04
59168;BME280;44948;55.046;73.266;2023-03-01T16:51:53;98358.97;;;0.53;86.32
59168;BME280;44948;55.046;73.266;2023-03-01T16:54:55;98322.88;;;0.53;86.49
59168;BME280;44948;55.046;73.266;2023-03-01T16:58:03;98318.25;;;0.58;86.46
59168;BME280;44948;55.046;73.266;2023-03-01T17:01:18;98349.63;;;0.79;86.27
59168;BME280;44948;55.046;73.266;2023-03-01T17:04:32;98337.75;;;0.76;86.46
59168;BME280;44948;55.046;73.266;2023-03-01T17:07:35;98336.28;;;0.72;86.41
59168;BME280;44948;55.046;73.266;2023-03-01T17:10:37;98345.94;;;0.83;86.24
59168;BME280;44948;55.046;73.266;2023-03-01T17:13:40;98345.78;;;0.86;86.07
59168;BME280;44948;55.046;73.266;2023-03-01T17:16:44;98351.00;;;0.85;86.10
59168;BME280;44948;55.046;73.266;2023-03-01T17:19:52;98345.31;;;0.79;86.25
59168;BME280;44948;55.046;73.266;2023-03-01T17:22:55;98349.44;;;0.82;86.21
59168;BME280;44948;55.046;73.266;2023-03-01T17:25:57;98329.09;;;0.77;86.41
59168;BME280;44948;55.046;73.266;2023-03-01T17:29:10;98336.63;;;0.80;86.21
59168;BME280;44948;55.046;73.266;2023-03-01T17:32:19;98319.88;;;0.73;85.96
59168;BME280;44948;55.046;73.266;2023-03-01T17:35:32;98311.63;;;0.68;86.30
59168;BME280;44948;55.046;73.266;2023-03-01T17:38:48;98313.81;;;0.74;86.11
59168;BME280;44948;55.046;73.266;2023-03-01T17:41:51;98316.41;;;0.60;86.32
59168;BME280;44948;55.046;73.266;2023-03-01T17:44:54;98323.09;;;0.77;85.93
59168;BME280;44948;55.046;73.266;2023-03-01T17:47:56;98331.47;;;0.80;85.75
59168;BME280;44948;55.046;73.266;2023-03-01T17:50:58;98310.84;;;0.80;85.84
59168;BME280;44948;55.046;73.266;2023-03-01T17:54:01;98303.19;;;0.79;85.56
59168;BME280;44948;55.046;73.266;2023-03-01T17:57:03;98310.84;;;0.80;85.92
59168;BME280;44948;55.046;73.266;2023-03-01T18:00:08;98267.00;;;0.66;85.64
59168;BME280;44948;55.046;73.266;2023-03-01T18:03:13;98298.03;;;0.79;85.61
59168;BME280;44948;55.046;73.266;2023-03-01T18:06:26;98282.66;;;0.77;85.52
59168;BME280;44948;55.046;73.266;2023-03-01T18:09:29;98284.81;;;0.84;85.68
59168;BME280;44948;55.046;73.266;2023-03-01T18:12:41;98271.19;;;0.81;85.21
59168;BME280;44948;55.046;73.266;2023-03-01T18:15:54;98258.06;;;0.72;85.47